createdAt,value
2023-02-21T00:01:32.368Z,9.72
2023-02-21T00:06:37.809Z,8.75
2023-02-21T00:11:46.485Z,9.92
2023-02-21T00:16:52.010Z,8.52
2023-02-21T00:21:57.496Z,8.85
2023-02-21T00:27:02.904Z,9.46
2023-02-21T00:32:08.561Z,8.69
2023-02-21T00:37:13.969Z,9.25
2023-02-21T00:42:19.405Z,8.27
2023-02-21T00:47:24.973Z,9.58
2023-02-21T00:52:30.397Z,8.85
2023-02-21T01:04:34.133Z,9.21
2023-02-21T01:09:40.014Z,8.09
2023-02-21T01:14:45.431Z,9.58
2023-02-21T01:19:50.877Z,9.24
2023-02-21T01:24:58.781Z,8.15
2023-02-21T01:30:04.295Z,9.68
2023-02-21T01:35:10.073Z,9.21
2023-02-21T01:40:19.300Z,8.70
2023-02-21T01:45:24.667Z,10.41
2023-02-21T01:50:33.878Z,9.13
2023-02-21T01:55:42.463Z,8.72
2023-02-21T02:00:48.061Z,9.82
2023-02-21T02:05:58.554Z,8.36
2023-02-21T02:11:36.091Z,9.55
2023-02-21T02:16:44.400Z,9.62
2023-02-21T02:21:49.814Z,8.50
2023-02-21T02:27:02.480Z,9.86
2023-02-21T02:32:20.315Z,9.29
2023-02-21T02:37:31.426Z,8.61
2023-02-21T02:42:38.882Z,9.98
2023-02-21T02:47:44.242Z,8.56
2023-02-21T02:52:51.838Z,9.59
2023-02-21T02:57:54.724Z,9.20
2023-02-21T03:02:58.186Z,8.26
2023-02-21T03:08:21.964Z,9.39
2023-02-21T03:13:36.404Z,8.21
2023-02-21T03:18:42.548Z,9.45
2023-02-21T03:23:46.576Z,8.29
2023-02-21T03:28:50.530Z,9.46
2023-02-21T03:33:53.440Z,8.93
2023-02-21T03:38:55.922Z,8.22
2023-02-21T03:43:58.468Z,9.48
2023-02-21T03:49:00.973Z,8.03
2023-02-21T03:54:03.494Z,8.60
2023-02-21T03:59:06.049Z,9.32
2023-02-21T04:04:08.646Z,8.55
2023-02-21T04:09:11.190Z,10.00
2023-02-21T04:14:13.909Z,8.79
2023-02-21T04:19:16.384Z,8.15
2023-02-21T04:24:18.926Z,9.65
2023-02-21T04:29:21.438Z,9.06
2023-02-21T04:34:24.001Z,8.42
2023-02-21T04:39:26.490Z,9.74
2023-02-21T04:44:29.068Z,8.29
2023-02-21T04:49:31.614Z,9.17
2023-02-21T04:54:36.232Z,9.93
2023-02-21T04:59:38.724Z,8.65
2023-02-21T05:04:43.092Z,9.99
2023-02-21T05:09:45.869Z,8.93
2023-02-21T05:14:50.885Z,9.30
2023-02-21T05:19:55.951Z,9.98
2023-02-21T05:24:58.503Z,8.49
2023-02-21T05:30:01.144Z,9.26
2023-02-21T05:35:04.697Z,9.61
2023-02-21T05:40:09.719Z,9.66
2023-02-21T05:45:12.674Z,10.22
2023-02-21T05:50:16.096Z,10.36
2023-02-21T05:55:18.905Z,10.16
2023-02-21T06:00:27.970Z,10.20
2023-02-21T06:05:30.492Z,10.36
2023-02-21T06:10:32.941Z,10.45
2023-02-21T06:15:37.688Z,10.14
2023-02-21T06:20:40.260Z,9.78
2023-02-21T06:25:42.812Z,9.98
2023-02-21T06:30:45.364Z,10.15
2023-02-21T06:35:47.894Z,10.15
2023-02-21T06:40:50.538Z,10.00
2023-02-21T06:45:55.408Z,10.10
2023-02-21T06:50:57.987Z,10.16
2023-02-21T06:56:00.517Z,10.32
2023-02-21T07:01:03.896Z,10.35
2023-02-21T07:06:06.522Z,10.14
2023-02-21T07:11:09.479Z,10.18
2023-02-21T07:16:14.313Z,10.23
2023-02-21T07:21:20.641Z,10.19
2023-02-21T07:26:23.122Z,10.50
2023-02-21T07:31:25.612Z,10.41
2023-02-21T07:36:28.208Z,10.57
2023-02-21T07:41:30.700Z,10.65
2023-02-21T07:46:34.517Z,10.41
2023-02-21T07:51:37.108Z,10.53
2023-02-21T07:56:47.011Z,10.27
2023-02-21T08:01:49.753Z,10.38
2023-02-21T08:06:52.300Z,10.60
2023-02-21T08:11:54.876Z,10.51
2023-02-21T08:16:57.419Z,10.78
2023-02-21T08:21:59.927Z,10.83
2023-02-21T08:27:03.585Z,10.92
2023-02-21T08:32:06.141Z,11.13
2023-02-21T08:37:19.718Z,11.17
2023-02-21T08:42:22.211Z,11.25
2023-02-21T08:47:24.841Z,11.29
2023-02-21T08:52:27.666Z,10.87
2023-02-21T08:57:30.249Z,11.00
2023-02-21T09:02:32.901Z,10.97
2023-02-21T09:07:35.823Z,11.31
2023-02-21T09:12:38.673Z,11.44
2023-02-21T09:17:41.229Z,11.48
2023-02-21T09:22:45.665Z,9.54
2023-02-21T09:27:48.304Z,10.23
2023-02-21T09:32:51.459Z,11.17
2023-02-21T09:37:53.982Z,11.69
2023-02-21T09:43:00.125Z,11.35
2023-02-21T09:48:11.809Z,10.18
2023-02-21T09:53:19.108Z,11.38
2023-02-21T09:58:21.742Z,11.34
2023-02-21T10:03:36.899Z,10.02
2023-02-21T10:08:48.332Z,11.33
2023-02-21T10:14:19.906Z,10.21
2023-02-21T10:19:29.899Z,11.01
2023-02-21T10:24:34.428Z,10.78
2023-02-21T10:29:44.983Z,9.88
2023-02-21T10:34:48.921Z,11.25
2023-02-21T10:40:00.976Z,10.31
2023-02-21T10:45:04.798Z,10.91
2023-02-21T10:50:11.984Z,9.83
2023-02-21T10:55:31.397Z,10.56
2023-02-21T11:00:39.249Z,9.33
2023-02-21T11:05:51.945Z,10.59
2023-02-21T11:10:55.350Z,9.48
2023-02-21T11:16:03.754Z,10.31
2023-02-21T11:21:14.136Z,10.34
2023-02-21T11:26:19.075Z,9.16
2023-02-21T11:31:21.686Z,10.27
2023-02-21T11:36:30.902Z,9.50
2023-02-21T11:41:37.282Z,10.51
2023-02-21T11:46:46.411Z,9.19
2023-02-21T11:51:56.111Z,10.08
2023-02-21T11:57:04.496Z,10.15
2023-02-21T12:02:12.181Z,9.71
2023-02-21T12:07:20.524Z,10.61
2023-02-21T12:12:32.385Z,9.51
2023-02-21T12:17:38.822Z,10.70
2023-02-21T12:22:47.201Z,9.53
2023-02-21T12:27:55.854Z,10.41
2023-02-21T12:32:59.386Z,9.78
2023-02-21T12:38:09.879Z,10.63
2023-02-21T12:43:22.800Z,10.22
2023-02-21T12:48:26.332Z,9.61
2023-02-21T12:53:31.773Z,11.19
2023-02-21T12:58:38.924Z,10.09
2023-02-21T13:03:44.390Z,10.56
2023-02-21T13:08:54.163Z,11.83
2023-02-21T13:13:58.822Z,10.77
2023-02-21T13:19:06.759Z,10.69
2023-02-21T13:24:12.174Z,11.86
2023-02-21T13:29:26.580Z,10.59
2023-02-21T13:34:37.022Z,11.25
2023-02-21T13:39:46.405Z,11.62
2023-02-21T13:44:54.130Z,10.22
2023-02-21T13:49:58.562Z,11.32
2023-02-21T13:55:06.865Z,10.63
2023-02-21T14:00:15.199Z,10.97
2023-02-21T14:05:18.379Z,11.07
2023-02-21T14:10:26.395Z,10.32
2023-02-21T14:15:40.228Z,11.36
2023-02-21T14:20:42.871Z,9.91
2023-02-21T14:26:04.970Z,10.92
2023-02-21T14:31:11.941Z,9.64
2023-02-21T14:36:18.655Z,9.86
2023-02-21T14:41:24.155Z,10.79
2023-02-21T14:46:32.471Z,9.55
2023-02-21T14:51:38.902Z,11.04
2023-02-21T14:56:47.016Z,10.61
2023-02-21T15:01:54.561Z,9.51
2023-02-21T15:06:59.399Z,10.40
2023-02-21T15:12:08.025Z,9.20
2023-02-21T15:17:17.749Z,10.69
2023-02-21T15:22:25.375Z,9.58
2023-02-21T15:27:28.249Z,9.41
2023-02-21T15:32:31.166Z,11.04
2023-02-21T15:37:38.710Z,9.66
2023-02-21T15:42:42.511Z,9.79
2023-02-21T15:47:46.389Z,11.34
2023-02-21T15:52:52.585Z,10.16
2023-02-21T15:57:58.719Z,9.71
2023-02-21T16:03:07.099Z,10.76
2023-02-21T16:08:16.811Z,9.33
2023-02-21T16:13:20.150Z,10.69
2023-02-21T16:18:22.721Z,11.46
2023-02-21T16:23:30.535Z,11.08
2023-02-21T16:28:33.116Z,10.86
2023-02-21T16:33:36.914Z,10.67
2023-02-21T16:38:39.431Z,9.73
2023-02-21T16:43:41.949Z,10.38
2023-02-21T16:48:44.445Z,10.76
2023-02-21T16:53:48.189Z,10.63
2023-02-21T16:58:54.636Z,10.80
2023-02-21T17:03:59.346Z,10.77
2023-02-21T17:09:01.884Z,10.77
2023-02-21T17:14:04.369Z,10.83
2023-02-21T17:19:07.015Z,10.83
2023-02-21T17:24:11.636Z,10.84
2023-02-21T17:29:14.207Z,10.88
2023-02-21T17:34:17.117Z,10.89
2023-02-21T17:39:21.554Z,10.95
2023-02-21T17:44:26.422Z,11.03
2023-02-21T17:49:30.040Z,11.00
2023-02-21T17:54:32.554Z,10.93
2023-02-21T17:59:36.224Z,10.95
2023-02-21T18:04:39.424Z,11.03
2023-02-21T18:09:42.101Z,11.06
2023-02-21T18:14:44.696Z,11.01
2023-02-21T18:19:47.328Z,11.09
2023-02-21T18:24:49.972Z,11.05
2023-02-21T18:29:55.974Z,10.92
2023-02-21T18:35:00.464Z,10.92
2023-02-21T18:40:05.512Z,11.04
2023-02-21T18:45:08.765Z,10.81
2023-02-21T18:50:11.455Z,8.55
2023-02-21T18:55:13.999Z,9.29
2023-02-21T19:00:18.600Z,10.11
2023-02-21T19:05:23.708Z,10.40
2023-02-21T19:10:28.357Z,10.51
2023-02-21T19:15:31.000Z,10.01
2023-02-21T19:20:33.731Z,8.62
2023-02-21T19:25:36.307Z,9.69
2023-02-21T19:30:38.846Z,10.15
2023-02-21T19:35:41.348Z,10.45
2023-02-21T19:40:44.076Z,10.67
2023-02-21T19:45:46.662Z,10.01
2023-02-21T19:50:49.532Z,8.19
2023-02-21T19:55:52.186Z,9.30
2023-02-21T20:00:54.793Z,10.08
2023-02-21T20:06:01.360Z,10.28
2023-02-21T20:11:04.038Z,10.29
2023-02-21T20:16:06.509Z,9.42
2023-02-21T20:21:09.129Z,7.75
2023-02-21T20:31:10.796Z,9.51
2023-02-21T20:36:14.730Z,9.76
2023-02-21T20:41:19.878Z,9.97
2023-02-21T20:46:23.622Z,10.07
2023-02-21T20:51:30.786Z,10.07
2023-02-21T20:56:35.929Z,10.10
2023-02-21T21:01:38.481Z,8.03
2023-02-21T21:06:41.497Z,7.46
2023-02-21T21:11:45.218Z,8.81
2023-02-21T21:16:47.711Z,9.37
2023-02-21T21:21:51.479Z,9.75
2023-02-21T21:26:53.997Z,9.95
2023-02-21T21:31:56.792Z,10.07
2023-02-21T21:37:01.965Z,8.65
2023-02-21T21:42:09.457Z,8.10
2023-02-21T21:47:15.398Z,9.08
2023-02-21T21:52:20.107Z,9.28
2023-02-21T21:57:23.031Z,9.48
2023-02-21T22:02:25.801Z,9.54
2023-02-21T22:07:28.316Z,9.61
2023-02-21T22:12:30.792Z,9.46
2023-02-21T22:17:33.252Z,7.49
2023-02-21T22:22:35.722Z,8.21
2023-02-21T22:27:38.216Z,8.71
2023-02-21T22:32:42.771Z,8.72
2023-02-21T22:37:47.761Z,8.53
2023-02-21T22:42:54.653Z,8.52
2023-02-21T22:47:57.670Z,8.41
2023-02-21T22:53:02.002Z,8.25
2023-02-21T22:58:07.488Z,8.45
2023-02-21T23:03:13.366Z,8.56
2023-02-21T23:08:20.062Z,6.55
2023-02-21T23:13:24.587Z,7.02
2023-02-21T23:18:27.597Z,8.15
2023-02-21T23:23:30.110Z,8.65
2023-02-21T23:28:34.214Z,8.73
2023-02-21T23:33:36.686Z,7.01
2023-02-21T23:38:39.237Z,7.30
2023-02-21T23:43:46.108Z,8.33
2023-02-21T23:48:49.508Z,8.75
2023-02-21T23:53:52.002Z,6.73
2023-02-21T23:58:54.534Z,6.20
